sensor_id;sensor_type;location;lat;lon;timestamp;pressure;altitude;pressure_sealevel;temperature;humidity
46768;BME280;69007;48.978;18.066;2023-04-27T00:01:11;97690.03;;;3.94;100.00
46768;BME280;69007;48.978;18.066;2023-04-27T00:03:37;97689.31;;;4.05;100.00
46768;BME280;69007;48.978;18.066;2023-04-27T00:06:03;97702.13;;;3.84;100.00
46768;BME280;69007;48.978;18.066;2023-04-27T00:08:29;97695.47;;;3.87;100.00
46768;BME280;69007;48.978;18.066;2023-04-27T00:10:55;97657.09;;;3.73;100.00
46768;BME280;69007;48.978;18.066;2023-04-27T00:13:21;97689.59;;;3.97;100.00
46768;BME280;69007;48.978;18.066;2023-04-27T00:15:46;97707.56;;;3.78;100.00
46768;BME280;69007;48.978;18.066;2023-04-27T00:18:12;97711.69;;;3.80;100.00
46768;BME280;69007;48.978;18.066;2023-04-27T00:20:37;97677.34;;;3.76;100.00
46768;BME280;69007;48.978;18.066;2023-04-27T00:23:02;97660.28;;;3.63;100.00
46768;BME280;69007;48.978;18.066;2023-04-27T00:25:28;97710.25;;;3.78;100.00
46768;BME280;69007;48.978;18.066;2023-04-27T00:27:53;97718.84;;;3.93;99.35
46768;BME280;69007;48.978;18.066;2023-04-27T00:30:19;97702.91;;;3.92;100.00
46768;BME280;69007;48.978;18.066;2023-04-27T00:32:44;97694.44;;;3.88;100.00
46768;BME280;69007;48.978;18.066;2023-04-27T00:35:10;97724.75;;;4.02;100.00
46768;BME280;69007;48.978;18.066;2023-04-27T00:37:35;97709.75;;;3.87;100.00
46768;BME280;69007;48.978;18.066;2023-04-27T00:40:03;97677.31;;;3.57;100.00
46768;BME280;69007;48.978;18.066;2023-04-27T00:42:28;97710.94;;;3.73;100.00
46768;BME280;69007;48.978;18.066;2023-04-27T00:44:56;97714.28;;;3.68;100.00
46768;BME280;69007;48.978;18.066;2023-04-27T00:47:23;97712.72;;;3.54;100.00
46768;BME280;69007;48.978;18.066;2023-04-27T00:49:48;97711.25;;;3.58;100.00
46768;BME280;69007;48.978;18.066;2023-04-27T00:52:14;97715.88;;;3.76;100.00
46768;BME280;69007;48.978;18.066;2023-04-27T00:54:39;97684.72;;;3.37;100.00
46768;BME280;69007;48.978;18.066;2023-04-27T00:57:05;97714.00;;;3.52;100.00
46768;BME280;69007;48.978;18.066;2023-04-27T00:59:30;97714.75;;;3.59;100.00
46768;BME280;69007;48.978;18.066;2023-04-27T01:01:55;97702.75;;;3.55;100.00
46768;BME280;69007;48.978;18.066;2023-04-27T01:04:21;97711.50;;;3.50;100.00
46768;BME280;69007;48.978;18.066;2023-04-27T01:06:47;97711.94;;;3.47;100.00
46768;BME280;69007;48.978;18.066;2023-04-27T01:09:12;97678.16;;;3.26;100.00
46768;BME280;69007;48.978;18.066;2023-04-27T01:11:40;97714.38;;;3.55;100.00
46768;BME280;69007;48.978;18.066;2023-04-27T01:14:06;97686.34;;;3.06;100.00
46768;BME280;69007;48.978;18.066;2023-04-27T01:16:32;97730.88;;;3.34;100.00
46768;BME280;69007;48.978;18.066;2023-04-27T01:18:57;97727.06;;;3.41;100.00
46768;BME280;69007;48.978;18.066;2023-04-27T01:21:23;97716.81;;;3.25;100.00
46768;BME280;69007;48.978;18.066;2023-04-27T01:23:49;97691.09;;;3.10;100.00
46768;BME280;69007;48.978;18.066;2023-04-27T01:26:14;97722.59;;;3.35;100.00
46768;BME280;69007;48.978;18.066;2023-04-27T01:28:41;97729.72;;;3.48;100.00
46768;BME280;69007;48.978;18.066;2023-04-27T01:31:06;97697.56;;;3.28;100.00
46768;BME280;69007;48.978;18.066;2023-04-27T01:33:32;97684.28;;;3.01;100.00
46768;BME280;69007;48.978;18.066;2023-04-27T01:35:57;97728.91;;;3.16;100.00
46768;BME280;69007;48.978;18.066;2023-04-27T01:38:22;97723.09;;;3.19;100.00
46768;BME280;69007;48.978;18.066;2023-04-27T01:40:48;97731.72;;;2.89;100.00
46768;BME280;69007;48.978;18.066;2023-04-27T01:43:14;97724.88;;;2.93;100.00
46768;BME280;69007;48.978;18.066;2023-04-27T01:45:39;97745.53;;;2.99;100.00
46768;BME280;69007;48.978;18.066;2023-04-27T01:48:04;97727.56;;;2.93;100.00
46768;BME280;69007;48.978;18.066;2023-04-27T01:50:30;97707.16;;;2.79;100.00
46768;BME280;69007;48.978;18.066;2023-04-27T01:52:55;97690.25;;;2.71;100.00
46768;BME280;69007;48.978;18.066;2023-04-27T01:55:21;97733.34;;;2.90;100.00
46768;BME280;69007;48.978;18.066;2023-04-27T01:57:46;97730.88;;;2.88;100.00
46768;BME280;69007;48.978;18.066;2023-04-27T02:00:12;97728.81;;;2.84;100.00
46768;BME280;69007;48.978;18.066;2023-04-27T02:02:37;97729.25;;;2.87;100.00
46768;BME280;69007;48.978;18.066;2023-04-27T02:05:03;97733.50;;;3.02;100.00
46768;BME280;69007;48.978;18.066;2023-04-27T02:07:28;97734.53;;;3.07;100.00
46768;BME280;69007;48.978;18.066;2023-04-27T02:09:54;97743.13;;;3.23;100.00
46768;BME280;69007;48.978;18.066;2023-04-27T02:12:19;97745.13;;;2.95;100.00
46768;BME280;69007;48.978;18.066;2023-04-27T02:14:44;97749.63;;;3.02;100.00
46768;BME280;69007;48.978;18.066;2023-04-27T02:17:10;97742.78;;;3.12;100.00
46768;BME280;69007;48.978;18.066;2023-04-27T02:19:35;97730.34;;;3.11;100.00
46768;BME280;69007;48.978;18.066;2023-04-27T02:22:00;97749.06;;;3.31;100.00
46768;BME280;69007;48.978;18.066;2023-04-27T02:24:26;97747.69;;;3.22;100.00
46768;BME280;69007;48.978;18.066;2023-04-27T02:26:51;97742.00;;;3.05;100.00
46768;BME280;69007;48.978;18.066;2023-04-27T02:29:17;97717.94;;;2.65;100.00
46768;BME280;69007;48.978;18.066;2023-04-27T02:31:42;97751.63;;;2.74;100.00
46768;BME280;69007;48.978;18.066;2023-04-27T02:34:08;97729.13;;;2.62;100.00
46768;BME280;69007;48.978;18.066;2023-04-27T02:36:33;97754.50;;;2.80;100.00
46768;BME280;69007;48.978;18.066;2023-04-27T02:38:58;97750.53;;;2.89;100.00
46768;BME280;69007;48.978;18.066;2023-04-27T02:41:24;97724.16;;;2.66;100.00
46768;BME280;69007;48.978;18.066;2023-04-27T02:43:52;97758.59;;;2.89;100.00
46768;BME280;69007;48.978;18.066;2023-04-27T02:46:18;97718.56;;;2.67;100.00
46768;BME280;69007;48.978;18.066;2023-04-27T02:48:43;97717.50;;;2.75;100.00
46768;BME280;69007;48.978;18.066;2023-04-27T02:51:08;97741.91;;;2.73;100.00
46768;BME280;69007;48.978;18.066;2023-04-27T02:53:34;97727.94;;;2.45;100.00
46768;BME280;69007;48.978;18.066;2023-04-27T02:55:59;97779.94;;;2.70;100.00
46768;BME280;69007;48.978;18.066;2023-04-27T02:58:24;97762.31;;;2.88;100.00
46768;BME280;69007;48.978;18.066;2023-04-27T03:00:54;97731.75;;;2.75;100.00
46768;BME280;69007;48.978;18.066;2023-04-27T03:03:21;97763.81;;;2.70;100.00
46768;BME280;69007;48.978;18.066;2023-04-27T03:05:46;97762.94;;;2.83;100.00
46768;BME280;69007;48.978;18.066;2023-04-27T03:08:11;97762.94;;;2.83;100.00
46768;BME280;69007;48.978;18.066;2023-04-27T03:10:37;97705.38;;;2.59;100.00
46768;BME280;69007;48.978;18.066;2023-04-27T03:13:02;97745.69;;;2.46;100.00
46768;BME280;69007;48.978;18.066;2023-04-27T03:15:27;97762.38;;;2.74;100.00
46768;BME280;69007;48.978;18.066;2023-04-27T03:17:53;97779.69;;;2.79;100.00
46768;BME280;69007;48.978;18.066;2023-04-27T03:20:18;97763.19;;;2.75;100.00
46768;BME280;69007;48.978;18.066;2023-04-27T03:22:43;97771.28;;;2.68;100.00
46768;BME280;69007;48.978;18.066;2023-04-27T03:25:10;97779.13;;;2.63;100.00
46768;BME280;69007;48.978;18.066;2023-04-27T03:27:35;97789.09;;;2.56;100.00
46768;BME280;69007;48.978;18.066;2023-04-27T03:30:01;97741.22;;;2.19;100.00
46768;BME280;69007;48.978;18.066;2023-04-27T03:32:27;97777.28;;;2.64;100.00
46768;BME280;69007;48.978;18.066;2023-04-27T03:34:53;97784.53;;;2.50;100.00
46768;BME280;69007;48.978;18.066;2023-04-27T03:37:18;97773.00;;;2.29;100.00
46768;BME280;69007;48.978;18.066;2023-04-27T03:39:43;97745.56;;;2.14;100.00
46768;BME280;69007;48.978;18.066;2023-04-27T03:42:09;97789.31;;;2.41;100.00
46768;BME280;69007;48.978;18.066;2023-04-27T03:44:34;97777.75;;;2.27;100.00
46768;BME280;69007;48.978;18.066;2023-04-27T03:47:00;97786.22;;;2.37;100.00
46768;BME280;69007;48.978;18.066;2023-04-27T03:49:26;97784.97;;;2.47;100.00
46768;BME280;69007;48.978;18.066;2023-04-27T03:51:51;97789.69;;;2.58;100.00
46768;BME280;69007;48.978;18.066;2023-04-27T03:54:17;97783.44;;;2.84;100.00
46768;BME280;69007;48.978;18.066;2023-04-27T03:56:42;97780.06;;;3.02;100.00
46768;BME280;69007;48.978;18.066;2023-04-27T03:59:08;97773.06;;;2.88;100.00
46768;BME280;69007;48.978;18.066;2023-04-27T04:01:34;97777.13;;;3.10;100.00
46768;BME280;69007;48.978;18.066;2023-04-27T04:04:00;97778.94;;;3.17;100.00
46768;BME280;69007;48.978;18.066;2023-04-27T04:06:26;97751.47;;;3.08;100.00
46768;BME280;69007;48.978;18.066;2023-04-27T04:08:52;97775.81;;;3.58;100.00
46768;BME280;69007;48.978;18.066;2023-04-27T04:11:17;97760.75;;;3.50;100.00
46768;BME280;69007;48.978;18.066;2023-04-27T04:13:43;97781.34;;;3.70;100.00
46768;BME280;69007;48.978;18.066;2023-04-27T04:16:08;97777.97;;;3.04;100.00
46768;BME280;69007;48.978;18.066;2023-04-27T04:18:34;97777.19;;;2.84;100.00
46768;BME280;69007;48.978;18.066;2023-04-27T04:21:00;97782.75;;;3.02;100.00
46768;BME280;69007;48.978;18.066;2023-04-27T04:23:26;97792.19;;;3.11;100.00
46768;BME280;69007;48.978;18.066;2023-04-27T04:25:52;97788.25;;;3.21;100.00
46768;BME280;69007;48.978;18.066;2023-04-27T04:28:18;97807.81;;;2.89;100.00
46768;BME280;69007;48.978;18.066;2023-04-27T04:30:43;97795.38;;;2.88;100.00
46768;BME280;69007;48.978;18.066;2023-04-27T04:33:09;97783.59;;;2.96;100.00
46768;BME280;69007;48.978;18.066;2023-04-27T04:35:39;97808.50;;;3.17;100.00
46768;BME280;69007;48.978;18.066;2023-04-27T04:38:05;97795.16;;;3.42;100.00
46768;BME280;69007;48.978;18.066;2023-04-27T04:40:31;97785.34;;;3.22;100.00
46768;BME280;69007;48.978;18.066;2023-04-27T04:42:56;97801.44;;;3.99;100.00
46768;BME280;69007;48.978;18.066;2023-04-27T04:45:22;97779.41;;;3.77;100.00
46768;BME280;69007;48.978;18.066;2023-04-27T04:47:50;97813.00;;;4.00;100.00
46768;BME280;69007;48.978;18.066;2023-04-27T04:50:15;97791.75;;;3.60;100.00
46768;BME280;69007;48.978;18.066;2023-04-27T04:52:41;97811.69;;;4.09;100.00
46768;BME280;69007;48.978;18.066;2023-04-27T04:55:06;97818.84;;;4.22;100.00
46768;BME280;69007;48.978;18.066;2023-04-27T04:57:32;97820.84;;;4.52;100.00
46768;BME280;69007;48.978;18.066;2023-04-27T04:59:57;97833.66;;;6.52;88.76
46768;BME280;69007;48.978;18.066;2023-04-27T05:02:22;97831.44;;;9.13;74.06
46768;BME280;69007;48.978;18.066;2023-04-27T05:04:48;97816.44;;;10.68;64.98
46768;BME280;69007;48.978;18.066;2023-04-27T05:07:16;97830.22;;;10.89;64.18
46768;BME280;69007;48.978;18.066;2023-04-27T05:09:41;97831.69;;;11.70;58.52
46768;BME280;69007;48.978;18.066;2023-04-27T05:12:07;97808.09;;;12.43;52.94
46768;BME280;69007;48.978;18.066;2023-04-27T05:14:33;97809.97;;;11.28;61.84
46768;BME280;69007;48.978;18.066;2023-04-27T05:16:58;97827.28;;;10.58;60.69
46768;BME280;69007;48.978;18.066;2023-04-27T05:19:24;97843.22;;;9.01;70.66
46768;BME280;69007;48.978;18.066;2023-04-27T05:21:49;97836.59;;;7.38;76.88
46768;BME280;69007;48.978;18.066;2023-04-27T05:24:15;97798.31;;;7.06;79.90
46768;BME280;69007;48.978;18.066;2023-04-27T05:26:42;97820.81;;;7.06;84.49
46768;BME280;69007;48.978;18.066;2023-04-27T05:29:07;97857.72;;;7.12;86.54
46768;BME280;69007;48.978;18.066;2023-04-27T05:31:33;97857.94;;;8.38;78.27
46768;BME280;69007;48.978;18.066;2023-04-27T05:33:58;97843.03;;;9.08;70.67
46768;BME280;69007;48.978;18.066;2023-04-27T05:36:23;97852.28;;;8.90;76.25
46768;BME280;69007;48.978;18.066;2023-04-27T05:38:48;97861.03;;;11.53;61.22
46768;BME280;69007;48.978;18.066;2023-04-27T05:41:14;97852.56;;;13.86;53.09
46768;BME280;69007;48.978;18.066;2023-04-27T05:43:39;97864.72;;;11.89;59.53
46768;BME280;69007;48.978;18.066;2023-04-27T05:46:05;97829.25;;;9.81;72.41
46768;BME280;69007;48.978;18.066;2023-04-27T05:48:30;97828.09;;;8.04;71.75
46768;BME280;69007;48.978;18.066;2023-04-27T05:51:02;97854.94;;;6.72;82.15
46768;BME280;69007;48.978;18.066;2023-04-27T05:53:33;97848.63;;;6.12;90.76
46768;BME280;69007;48.978;18.066;2023-04-27T05:55:58;97869.25;;;6.72;87.03
46768;BME280;69007;48.978;18.066;2023-04-27T05:58:25;97858.50;;;6.30;91.76
46768;BME280;69007;48.978;18.066;2023-04-27T06:00:50;97825.13;;;5.82;91.90
46768;BME280;69007;48.978;18.066;2023-04-27T06:03:16;97875.81;;;5.50;95.30
46768;BME280;69007;48.978;18.066;2023-04-27T06:05:41;97831.97;;;6.27;90.03
46768;BME280;69007;48.978;18.066;2023-04-27T06:08:07;97874.44;;;6.74;88.34
46768;BME280;69007;48.978;18.066;2023-04-27T06:10:32;97874.78;;;7.01;85.75
46768;BME280;69007;48.978;18.066;2023-04-27T06:12:58;97878.81;;;6.87;86.40
46768;BME280;69007;48.978;18.066;2023-04-27T06:15:23;97838.66;;;6.48;87.64
46768;BME280;69007;48.978;18.066;2023-04-27T06:17:48;97843.44;;;5.50;98.76
46768;BME280;69007;48.978;18.066;2023-04-27T06:20:14;97832.81;;;5.97;97.73
46768;BME280;69007;48.978;18.066;2023-04-27T06:22:39;97873.97;;;6.65;89.45
46768;BME280;69007;48.978;18.066;2023-04-27T06:25:05;97880.19;;;6.54;94.05
46768;BME280;69007;48.978;18.066;2023-04-27T06:27:31;97868.25;;;7.49;90.64
46768;BME280;69007;48.978;18.066;2023-04-27T06:29:57;97850.50;;;8.45;78.75
46768;BME280;69007;48.978;18.066;2023-04-27T06:32:23;97880.66;;;8.48;78.47
46768;BME280;69007;48.978;18.066;2023-04-27T06:34:48;97873.94;;;9.24;76.91
46768;BME280;69007;48.978;18.066;2023-04-27T06:37:14;97866.47;;;9.14;75.30
46768;BME280;69007;48.978;18.066;2023-04-27T06:39:42;97829.34;;;8.98;77.18
46768;BME280;69007;48.978;18.066;2023-04-27T06:42:07;97861.50;;;8.72;78.54
46768;BME280;69007;48.978;18.066;2023-04-27T06:44:32;97860.72;;;9.11;78.06
46768;BME280;69007;48.978;18.066;2023-04-27T06:46:58;97861.09;;;8.01;81.57
46768;BME280;69007;48.978;18.066;2023-04-27T06:49:23;97892.59;;;9.82;78.41
46768;BME280;69007;48.978;18.066;2023-04-27T06:51:49;97882.66;;;8.41;83.87
46768;BME280;69007;48.978;18.066;2023-04-27T06:54:15;97870.97;;;9.70;75.42
46768;BME280;69007;48.978;18.066;2023-04-27T06:56:40;97885.13;;;9.94;73.06
46768;BME280;69007;48.978;18.066;2023-04-27T06:59:07;97906.97;;;8.82;80.99
46768;BME280;69007;48.978;18.066;2023-04-27T07:01:32;97893.06;;;8.95;79.78
46768;BME280;69007;48.978;18.066;2023-04-27T07:03:58;97872.09;;;9.30;74.64
46768;BME280;69007;48.978;18.066;2023-04-27T07:06:23;97907.03;;;9.04;77.08
46768;BME280;69007;48.978;18.066;2023-04-27T07:08:50;97894.66;;;9.30;75.45
46768;BME280;69007;48.978;18.066;2023-04-27T07:11:15;97894.22;;;10.05;74.66
46768;BME280;69007;48.978;18.066;2023-04-27T07:13:41;97895.44;;;9.48;77.81
46768;BME280;69007;48.978;18.066;2023-04-27T07:16:06;97872.56;;;9.66;74.45
46768;BME280;69007;48.978;18.066;2023-04-27T07:18:32;97879.13;;;9.48;75.05
46768;BME280;69007;48.978;18.066;2023-04-27T07:20:57;97872.75;;;9.59;76.64
46768;BME280;69007;48.978;18.066;2023-04-27T07:23:23;97907.66;;;9.28;78.79
46768;BME280;69007;48.978;18.066;2023-04-27T07:25:48;97866.38;;;9.26;77.00
46768;BME280;69007;48.978;18.066;2023-04-27T07:28:14;97893.66;;;9.58;77.70
46768;BME280;69007;48.978;18.066;2023-04-27T07:30:40;97896.03;;;9.99;77.88
46768;BME280;69007;48.978;18.066;2023-04-27T07:33:06;97895.03;;;10.05;74.96
46768;BME280;69007;48.978;18.066;2023-04-27T07:35:32;97890.19;;;10.67;75.41
46768;BME280;69007;48.978;18.066;2023-04-27T07:37:59;97874.78;;;9.96;72.67
46768;BME280;69007;48.978;18.066;2023-04-27T07:40:26;97901.81;;;9.81;76.47
46768;BME280;69007;48.978;18.066;2023-04-27T07:42:52;97867.50;;;9.74;72.39
46768;BME280;69007;48.978;18.066;2023-04-27T07:45:18;97880.78;;;9.98;74.32
46768;BME280;69007;48.978;18.066;2023-04-27T07:47:43;97874.88;;;9.79;72.43
46768;BME280;69007;48.978;18.066;2023-04-27T07:50:09;97870.84;;;11.01;71.58
46768;BME280;69007;48.978;18.066;2023-04-27T07:52:35;97886.56;;;9.35;75.31
46768;BME280;69007;48.978;18.066;2023-04-27T07:55:01;97890.34;;;8.95;75.88
46768;BME280;69007;48.978;18.066;2023-04-27T07:57:27;97896.28;;;9.09;77.26
46768;BME280;69007;48.978;18.066;2023-04-27T07:59:53;97867.91;;;8.66;72.61
46768;BME280;69007;48.978;18.066;2023-04-27T08:02:18;97896.69;;;9.40;70.23
46768;BME280;69007;48.978;18.066;2023-04-27T08:04:43;97870.22;;;8.91;73.11
46768;BME280;69007;48.978;18.066;2023-04-27T08:07:08;97855.09;;;9.84;69.53
46768;BME280;69007;48.978;18.066;2023-04-27T08:09:34;97854.00;;;9.57;66.01
46768;BME280;69007;48.978;18.066;2023-04-27T08:12:00;97883.69;;;10.13;64.35
46768;BME280;69007;48.978;18.066;2023-04-27T08:14:27;97897.50;;;10.34;63.94
46768;BME280;69007;48.978;18.066;2023-04-27T08:16:52;97896.78;;;10.17;66.05
46768;BME280;69007;48.978;18.066;2023-04-27T08:19:18;97878.94;;;9.76;61.87
46768;BME280;69007;48.978;18.066;2023-04-27T08:21:43;97885.50;;;9.81;64.16
46768;BME280;69007;48.978;18.066;2023-04-27T08:24:09;97855.88;;;9.13;63.38
46768;BME280;69007;48.978;18.066;2023-04-27T08:26:34;97846.06;;;9.12;62.98
46768;BME280;69007;48.978;18.066;2023-04-27T08:29:00;97886.31;;;10.30;57.82
46768;BME280;69007;48.978;18.066;2023-04-27T08:31:26;97892.75;;;9.97;52.45
46768;BME280;69007;48.978;18.066;2023-04-27T08:33:52;97894.34;;;9.93;53.24
46768;BME280;69007;48.978;18.066;2023-04-27T08:36:21;97853.03;;;9.69;55.14
46768;BME280;69007;48.978;18.066;2023-04-27T08:38:49;97865.53;;;9.92;53.70
46768;BME280;69007;48.978;18.066;2023-04-27T08:41:21;97895.88;;;10.11;53.85
46768;BME280;69007;48.978;18.066;2023-04-27T08:43:48;97862.81;;;9.70;53.16
46768;BME280;69007;48.978;18.066;2023-04-27T08:46:21;97881.63;;;9.76;55.23
46768;BME280;69007;48.978;18.066;2023-04-27T08:48:51;97857.25;;;10.09;52.45
46768;BME280;69007;48.978;18.066;2023-04-27T08:51:17;97890.09;;;10.57;50.61
46768;BME280;69007;48.978;18.066;2023-04-27T08:53:51;97863.44;;;10.91;49.82
46768;BME280;69007;48.978;18.066;2023-04-27T08:56:21;97894.63;;;11.16;50.68
46768;BME280;69007;48.978;18.066;2023-04-27T08:58:48;97893.66;;;11.37;47.98
46768;BME280;69007;48.978;18.066;2023-04-27T09:01:13;97887.88;;;10.81;46.40
46768;BME280;69007;48.978;18.066;2023-04-27T09:03:40;97889.91;;;11.01;47.15
46768;BME280;69007;48.978;18.066;2023-04-27T09:06:06;97858.44;;;10.78;48.62
46768;BME280;69007;48.978;18.066;2023-04-27T09:08:45;97891.28;;;11.51;48.76
46768;BME280;69007;48.978;18.066;2023-04-27T09:11:14;97913.19;;;11.67;45.58
46768;BME280;69007;48.978;18.066;2023-04-27T09:13:42;97884.50;;;11.59;51.42
46768;BME280;69007;48.978;18.066;2023-04-27T09:16:11;97880.25;;;11.89;47.75
46768;BME280;69007;48.978;18.066;2023-04-27T09:18:40;97857.50;;;10.62;45.09
46768;BME280;69007;48.978;18.066;2023-04-27T09:21:06;97851.13;;;10.83;46.59
46768;BME280;69007;48.978;18.066;2023-04-27T09:26:01;97839.63;;;10.11;43.57
46768;BME280;69007;48.978;18.066;2023-04-27T09:28:28;97880.88;;;10.58;43.96
46768;BME280;69007;48.978;18.066;2023-04-27T09:30:57;97895.63;;;10.67;44.61
46768;BME280;69007;48.978;18.066;2023-04-27T09:33:41;97902.00;;;11.15;47.66
46768;BME280;69007;48.978;18.066;2023-04-27T09:36:07;97859.28;;;9.69;47.46
46768;BME280;69007;48.978;18.066;2023-04-27T09:38:33;97872.00;;;10.13;46.61
46768;BME280;69007;48.978;18.066;2023-04-27T09:40:59;97863.09;;;10.23;48.40
46768;BME280;69007;48.978;18.066;2023-04-27T09:43:25;97891.91;;;10.46;46.77
46768;BME280;69007;48.978;18.066;2023-04-27T09:45:53;97893.47;;;10.69;46.91
46768;BME280;69007;48.978;18.066;2023-04-27T09:48:21;97864.78;;;10.29;47.11
46768;BME280;69007;48.978;18.066;2023-04-27T09:50:48;97883.69;;;10.13;47.18
46768;BME280;69007;48.978;18.066;2023-04-27T09:53:17;97889.00;;;10.53;50.91
46768;BME280;69007;48.978;18.066;2023-04-27T10:04:11;97848.34;;;11.84;43.88
46768;BME280;69007;48.978;18.066;2023-04-27T10:09:33;97814.84;;;11.15;43.39
46768;BME280;69007;48.978;18.066;2023-04-27T10:12:31;97870.69;;;11.81;44.68
46768;BME280;69007;48.978;18.066;2023-04-27T10:14:58;97845.31;;;11.07;41.24
46768;BME280;69007;48.978;18.066;2023-04-27T10:17:32;97863.25;;;11.56;42.46
46768;BME280;69007;48.978;18.066;2023-04-27T10:22:24;97847.59;;;11.94;39.29
46768;BME280;69007;48.978;18.066;2023-04-27T10:27:47;97837.06;;;11.55;42.38
46768;BME280;69007;48.978;18.066;2023-04-27T10:30:17;97839.47;;;10.93;42.02
46768;BME280;69007;48.978;18.066;2023-04-27T10:32:52;97831.72;;;11.12;41.51
46768;BME280;69007;48.978;18.066;2023-04-27T10:35:18;97862.63;;;11.38;42.20
46768;BME280;69007;48.978;18.066;2023-04-27T10:37:45;97866.88;;;11.82;45.49
46768;BME280;69007;48.978;18.066;2023-04-27T10:40:12;97827.16;;;11.91;43.04
46768;BME280;69007;48.978;18.066;2023-04-27T10:42:45;97809.72;;;12.18;39.79
46768;BME280;69007;48.978;18.066;2023-04-27T10:45:13;97835.50;;;11.79;42.79
46768;BME280;69007;48.978;18.066;2023-04-27T10:47:43;97832.09;;;12.35;40.72
46768;BME280;69007;48.978;18.066;2023-04-27T10:50:11;97863.59;;;11.70;39.93
46768;BME280;69007;48.978;18.066;2023-04-27T10:52:42;97867.28;;;11.48;40.01
46768;BME280;69007;48.978;18.066;2023-04-27T10:55:15;97838.63;;;11.35;45.25
46768;BME280;69007;48.978;18.066;2023-04-27T10:57:52;97838.72;;;11.61;39.52
46768;BME280;69007;48.978;18.066;2023-04-27T11:00:22;97852.84;;;12.26;40.27
46768;BME280;69007;48.978;18.066;2023-04-27T11:02:48;97856.03;;;11.97;42.95
46768;BME280;69007;48.978;18.066;2023-04-27T11:05:17;97828.53;;;12.09;38.80
46768;BME280;69007;48.978;18.066;2023-04-27T11:07:43;97869.22;;;12.42;40.65
46768;BME280;69007;48.978;18.066;2023-04-27T11:10:09;97868.28;;;11.90;39.23
46768;BME280;69007;48.978;18.066;2023-04-27T11:12:35;97854.03;;;11.09;42.76
46768;BME280;69007;48.978;18.066;2023-04-27T11:15:00;97833.44;;;11.34;42.91
46768;BME280;69007;48.978;18.066;2023-04-27T11:17:30;97875.72;;;12.00;41.97
46768;BME280;69007;48.978;18.066;2023-04-27T11:19:56;97864.72;;;11.89;42.22
46768;BME280;69007;48.978;18.066;2023-04-27T11:22:21;97854.06;;;11.88;40.26
46768;BME280;69007;48.978;18.066;2023-04-27T11:24:48;97820.53;;;11.77;44.96
46768;BME280;69007;48.978;18.066;2023-04-27T11:27:14;97825.84;;;11.46;40.61
46768;BME280;69007;48.978;18.066;2023-04-27T11:29:39;97844.47;;;11.65;39.57
46768;BME280;69007;48.978;18.066;2023-04-27T11:32:05;97845.13;;;12.03;39.65
46768;BME280;69007;48.978;18.066;2023-04-27T11:34:31;97857.75;;;12.34;43.14
46768;BME280;69007;48.978;18.066;2023-04-27T11:37:05;97862.59;;;11.91;40.88
46768;BME280;69007;48.978;18.066;2023-04-27T11:39:37;97838.88;;;12.02;43.13
46768;BME280;69007;48.978;18.066;2023-04-27T11:42:22;97862.63;;;12.07;41.97
46768;BME280;69007;48.978;18.066;2023-04-27T11:44:56;97858.94;;;11.70;40.58
46768;BME280;69007;48.978;18.066;2023-04-27T11:47:23;97889.50;;;11.83;40.35
46768;BME280;69007;48.978;18.066;2023-04-27T11:49:59;97826.28;;;11.17;41.76
46768;BME280;69007;48.978;18.066;2023-04-27T11:52:29;97843.59;;;10.96;42.00
46768;BME280;69007;48.978;18.066;2023-04-27T11:54:54;97849.63;;;11.61;41.11
46768;BME280;69007;48.978;18.066;2023-04-27T11:57:24;97829.38;;;11.41;39.56
46768;BME280;69007;48.978;18.066;2023-04-27T11:59:54;97832.16;;;11.47;44.72
46768;BME280;69007;48.978;18.066;2023-04-27T12:02:20;97846.81;;;11.35;42.94
46768;BME280;69007;48.978;18.066;2023-04-27T12:04:49;97859.94;;;11.43;40.21
46768;BME280;69007;48.978;18.066;2023-04-27T12:07:15;97849.84;;;11.44;42.01
46768;BME280;69007;48.978;18.066;2023-04-27T12:09:40;97821.16;;;11.31;42.25
46768;BME280;69007;48.978;18.066;2023-04-27T12:12:06;97836.00;;;11.66;42.75
46768;BME280;69007;48.978;18.066;2023-04-27T12:14:32;97831.84;;;11.48;42.10
46768;BME280;69007;48.978;18.066;2023-04-27T12:16:57;97850.81;;;11.17;43.76
46768;BME280;69007;48.978;18.066;2023-04-27T12:19:22;97839.84;;;11.65;44.31
46768;BME280;69007;48.978;18.066;2023-04-27T12:21:51;97850.81;;;11.86;48.21
46768;BME280;69007;48.978;18.066;2023-04-27T12:24:17;97865.34;;;11.96;45.98
46768;BME280;69007;48.978;18.066;2023-04-27T12:26:42;97853.22;;;11.72;42.57
46768;BME280;69007;48.978;18.066;2023-04-27T12:29:08;97855.69;;;11.73;45.06
46768;BME280;69007;48.978;18.066;2023-04-27T12:31:33;97859.03;;;11.28;41.69
46768;BME280;69007;48.978;18.066;2023-04-27T12:33:59;97824.81;;;11.57;42.99
46768;BME280;69007;48.978;18.066;2023-04-27T12:36:25;97808.84;;;11.23;42.78
46768;BME280;69007;48.978;18.066;2023-04-27T12:38:52;97819.41;;;11.68;42.81
46768;BME280;69007;48.978;18.066;2023-04-27T12:41:18;97845.72;;;12.00;44.19
46768;BME280;69007;48.978;18.066;2023-04-27T12:43:43;97839.59;;;11.77;42.41
46768;BME280;69007;48.978;18.066;2023-04-27T12:46:09;97819.97;;;11.70;42.99
46768;BME280;69007;48.978;18.066;2023-04-27T12:48:35;97805.81;;;11.83;42.42
46768;BME280;69007;48.978;18.066;2023-04-27T12:51:01;97828.19;;;11.85;41.32
46768;BME280;69007;48.978;18.066;2023-04-27T12:53:27;97802.09;;;12.41;41.39
46768;BME280;69007;48.978;18.066;2023-04-27T12:55:52;97815.19;;;12.59;39.87
46768;BME280;69007;48.978;18.066;2023-04-27T12:58:17;97838.91;;;12.84;45.02
46768;BME280;69007;48.978;18.066;2023-04-27T13:00:43;97793.88;;;12.87;41.18
46768;BME280;69007;48.978;18.066;2023-04-27T13:03:08;97797.19;;;12.38;40.90
46768;BME280;69007;48.978;18.066;2023-04-27T13:05:34;97795.53;;;12.52;42.61
46768;BME280;69007;48.978;18.066;2023-04-27T13:08:00;97805.91;;;12.29;42.64